sensor_id;sensor_type;location;lat;lon;timestamp;P1;durP1;ratioP1;P2;durP2;ratioP2
70953;SDS011;58618;47.490;8.736;2022-09-16T00:01:41;8.47;;;5.60;;
70953;SDS011;58618;47.490;8.736;2022-09-16T00:04:32;10.10;;;6.07;;
70953;SDS011;58618;47.490;8.736;2022-09-16T00:07:20;10.02;;;6.00;;
70953;SDS011;58618;47.490;8.736;2022-09-16T00:10:07;8.27;;;5.90;;
70953;SDS011;58618;47.490;8.736;2022-09-16T00:12:55;12.63;;;6.15;;
70953;SDS011;58618;47.490;8.736;2022-09-16T00:15:42;9.80;;;6.20;;
70953;SDS011;58618;47.490;8.736;2022-09-16T00:18:30;8.25;;;5.57;;
70953;SDS011;58618;47.490;8.736;2022-09-16T00:21:22;7.53;;;5.82;;
70953;SDS011;58618;47.490;8.736;2022-09-16T00:24:09;9.70;;;5.90;;
70953;SDS011;58618;47.490;8.736;2022-09-16T00:26:58;10.68;;;6.47;;
70953;SDS011;58618;47.490;8.736;2022-09-16T00:29:46;8.00;;;5.80;;
70953;SDS011;58618;47.490;8.736;2022-09-16T00:32:33;8.48;;;6.18;;
70953;SDS011;58618;47.490;8.736;2022-09-16T00:35:20;9.23;;;5.57;;
70953;SDS011;58618;47.490;8.736;2022-09-16T00:38:09;10.05;;;5.95;;
70953;SDS011;58618;47.490;8.736;2022-09-16T00:40:56;8.07;;;5.45;;
70953;SDS011;58618;47.490;8.736;2022-09-16T00:43:45;7.23;;;5.17;;
70953;SDS011;58618;47.490;8.736;2022-09-16T00:46:35;11.93;;;6.22;;
70953;SDS011;58618;47.490;8.736;2022-09-16T00:49:26;10.50;;;5.28;;
70953;SDS011;58618;47.490;8.736;2022-09-16T00:52:16;11.70;;;5.90;;
70953;SDS011;58618;47.490;8.736;2022-09-16T00:55:08;7.63;;;5.75;;
70953;SDS011;58618;47.490;8.736;2022-09-16T00:57:58;5.47;;;4.80;;
70953;SDS011;58618;47.490;8.736;2022-09-16T01:00:51;7.30;;;5.30;;
70953;SDS011;58618;47.490;8.736;2022-09-16T01:03:41;7.10;;;4.85;;
70953;SDS011;58618;47.490;8.736;2022-09-16T01:06:31;10.07;;;5.57;;
70953;SDS011;58618;47.490;8.736;2022-09-16T01:09:23;9.52;;;6.07;;
70953;SDS011;58618;47.490;8.736;2022-09-16T01:12:14;8.53;;;5.70;;
70953;SDS011;58618;47.490;8.736;2022-09-16T01:15:01;9.93;;;5.72;;
70953;SDS011;58618;47.490;8.736;2022-09-16T01:17:53;8.70;;;5.88;;
70953;SDS011;58618;47.490;8.736;2022-09-16T01:30:55;9.45;;;6.47;;
70953;SDS011;58618;47.490;8.736;2022-09-16T01:33:50;8.32;;;5.95;;
70953;SDS011;58618;47.490;8.736;2022-09-16T01:36:47;10.32;;;6.55;;
70953;SDS011;58618;47.490;8.736;2022-09-16T01:39:43;8.30;;;6.15;;
70953;SDS011;58618;47.490;8.736;2022-09-16T01:42:37;10.10;;;6.13;;
70953;SDS011;58618;47.490;8.736;2022-09-16T01:45:34;10.27;;;6.28;;
70953;SDS011;58618;47.490;8.736;2022-09-16T01:48:27;10.57;;;6.32;;
70953;SDS011;58618;47.490;8.736;2022-09-16T01:51:24;9.63;;;5.95;;
70953;SDS011;58618;47.490;8.736;2022-09-16T01:54:17;11.63;;;7.05;;
70953;SDS011;58618;47.490;8.736;2022-09-16T01:57:10;8.60;;;6.40;;
70953;SDS011;58618;47.490;8.736;2022-09-16T02:00:02;9.25;;;7.35;;
70953;SDS011;58618;47.490;8.736;2022-09-16T02:02:53;9.95;;;7.50;;
70953;SDS011;58618;47.490;8.736;2022-09-16T02:05:46;10.57;;;8.02;;
70953;SDS011;58618;47.490;8.736;2022-09-16T02:08:39;11.95;;;7.43;;
70953;SDS011;58618;47.490;8.736;2022-09-16T02:11:30;9.97;;;7.37;;
70953;SDS011;58618;47.490;8.736;2022-09-16T02:14:19;9.45;;;7.03;;
70953;SDS011;58618;47.490;8.736;2022-09-16T02:17:10;10.93;;;7.22;;
70953;SDS011;58618;47.490;8.736;2022-09-16T02:20:02;11.18;;;7.22;;
70953;SDS011;58618;47.490;8.736;2022-09-16T02:22:55;10.60;;;7.70;;
70953;SDS011;58618;47.490;8.736;2022-09-16T02:25:47;11.73;;;7.73;;
70953;SDS011;58618;47.490;8.736;2022-09-16T02:28:36;11.15;;;7.43;;
70953;SDS011;58618;47.490;8.736;2022-09-16T02:31:29;10.55;;;7.43;;
70953;SDS011;58618;47.490;8.736;2022-09-16T02:34:20;11.80;;;7.65;;
70953;SDS011;58618;47.490;8.736;2022-09-16T02:37:12;8.50;;;6.47;;
70953;SDS011;58618;47.490;8.736;2022-09-16T02:40:06;8.27;;;6.90;;
70953;SDS011;58618;47.490;8.736;2022-09-16T02:42:59;12.50;;;7.80;;
70953;SDS011;58618;47.490;8.736;2022-09-16T02:45:49;10.00;;;7.10;;
70953;SDS011;58618;47.490;8.736;2022-09-16T02:48:47;8.35;;;6.50;;
70953;SDS011;58618;47.490;8.736;2022-09-16T02:51:43;8.77;;;6.93;;
70953;SDS011;58618;47.490;8.736;2022-09-16T02:54:40;10.27;;;6.80;;
70953;SDS011;58618;47.490;8.736;2022-09-16T02:57:37;10.63;;;7.30;;
70953;SDS011;58618;47.490;8.736;2022-09-16T03:00:24;9.70;;;7.18;;
70953;SDS011;58618;47.490;8.736;2022-09-16T03:03:13;12.98;;;7.70;;
70953;SDS011;58618;47.490;8.736;2022-09-16T03:06:05;13.25;;;7.43;;
70953;SDS011;58618;47.490;8.736;2022-09-16T03:09:02;9.03;;;6.60;;
70953;SDS011;58618;47.490;8.736;2022-09-16T03:11:56;15.15;;;7.70;;
70953;SDS011;58618;47.490;8.736;2022-09-16T03:18:21;10.38;;;7.25;;
70953;SDS011;58618;47.490;8.736;2022-09-16T03:21:25;9.77;;;7.57;;
70953;SDS011;58618;47.490;8.736;2022-09-16T03:24:24;10.37;;;7.03;;
70953;SDS011;58618;47.490;8.736;2022-09-16T03:27:21;10.75;;;7.47;;
70953;SDS011;58618;47.490;8.736;2022-09-16T03:30:16;10.20;;;7.63;;
70953;SDS011;58618;47.490;8.736;2022-09-16T03:33:07;10.32;;;7.68;;
70953;SDS011;58618;47.490;8.736;2022-09-16T03:36:03;9.88;;;7.13;;
70953;SDS011;58618;47.490;8.736;2022-09-16T03:38:53;11.20;;;7.93;;
70953;SDS011;58618;47.490;8.736;2022-09-16T03:41:42;13.73;;;7.25;;
70953;SDS011;58618;47.490;8.736;2022-09-16T03:44:31;9.85;;;7.28;;
70953;SDS011;58618;47.490;8.736;2022-09-16T03:47:19;11.20;;;6.57;;
70953;SDS011;58618;47.490;8.736;2022-09-16T03:50:08;11.25;;;7.20;;
70953;SDS011;58618;47.490;8.736;2022-09-16T03:52:55;10.27;;;6.67;;
70953;SDS011;58618;47.490;8.736;2022-09-16T03:55:43;9.93;;;7.20;;
70953;SDS011;58618;47.490;8.736;2022-09-16T03:58:30;11.32;;;7.55;;
70953;SDS011;58618;47.490;8.736;2022-09-16T04:01:17;9.48;;;7.20;;
70953;SDS011;58618;47.490;8.736;2022-09-16T04:04:05;10.18;;;6.65;;
70953;SDS011;58618;47.490;8.736;2022-09-16T04:06:54;10.33;;;6.73;;
70953;SDS011;58618;47.490;8.736;2022-09-16T04:09:41;9.38;;;6.35;;
70953;SDS011;58618;47.490;8.736;2022-09-16T04:12:28;9.10;;;6.72;;
70953;SDS011;58618;47.490;8.736;2022-09-16T04:15:16;10.00;;;6.68;;
70953;SDS011;58618;47.490;8.736;2022-09-16T04:18:03;9.27;;;6.63;;
70953;SDS011;58618;47.490;8.736;2022-09-16T04:20:54;10.13;;;7.03;;
70953;SDS011;58618;47.490;8.736;2022-09-16T04:23:43;9.65;;;6.85;;
70953;SDS011;58618;47.490;8.736;2022-09-16T04:26:31;9.25;;;7.05;;
70953;SDS011;58618;47.490;8.736;2022-09-16T04:29:19;11.55;;;7.13;;
70953;SDS011;58618;47.490;8.736;2022-09-16T04:32:06;10.35;;;7.15;;
70953;SDS011;58618;47.490;8.736;2022-09-16T04:34:53;9.20;;;6.33;;
70953;SDS011;58618;47.490;8.736;2022-09-16T04:37:41;12.68;;;7.10;;
70953;SDS011;58618;47.490;8.736;2022-09-16T04:40:29;11.95;;;7.03;;
70953;SDS011;58618;47.490;8.736;2022-09-16T04:43:17;9.52;;;6.93;;
70953;SDS011;58618;47.490;8.736;2022-09-16T04:46:04;8.68;;;6.47;;
70953;SDS011;58618;47.490;8.736;2022-09-16T04:48:52;10.50;;;6.67;;
70953;SDS011;58618;47.490;8.736;2022-09-16T04:51:40;12.02;;;6.38;;
70953;SDS011;58618;47.490;8.736;2022-09-16T04:54:28;10.63;;;6.55;;
70953;SDS011;58618;47.490;8.736;2022-09-16T04:57:16;9.00;;;6.28;;
70953;SDS011;58618;47.490;8.736;2022-09-16T05:00:04;9.20;;;6.60;;
70953;SDS011;58618;47.490;8.736;2022-09-16T05:02:52;8.97;;;6.73;;
70953;SDS011;58618;47.490;8.736;2022-09-16T05:05:40;10.20;;;7.43;;
70953;SDS011;58618;47.490;8.736;2022-09-16T05:08:27;9.05;;;7.15;;
70953;SDS011;58618;47.490;8.736;2022-09-16T05:11:15;10.85;;;7.20;;
70953;SDS011;58618;47.490;8.736;2022-09-16T05:14:06;9.88;;;6.50;;
70953;SDS011;58618;47.490;8.736;2022-09-16T05:16:56;12.03;;;7.20;;
70953;SDS011;58618;47.490;8.736;2022-09-16T05:19:43;10.60;;;7.15;;
70953;SDS011;58618;47.490;8.736;2022-09-16T05:22:30;13.02;;;7.38;;
70953;SDS011;58618;47.490;8.736;2022-09-16T05:25:18;11.30;;;7.00;;
70953;SDS011;58618;47.490;8.736;2022-09-16T05:28:05;9.50;;;6.65;;
70953;SDS011;58618;47.490;8.736;2022-09-16T05:31:06;9.13;;;7.03;;
70953;SDS011;58618;47.490;8.736;2022-09-16T05:33:56;9.63;;;6.50;;
70953;SDS011;58618;47.490;8.736;2022-09-16T05:36:46;9.80;;;7.05;;
70953;SDS011;58618;47.490;8.736;2022-09-16T05:39:35;12.15;;;7.30;;
70953;SDS011;58618;47.490;8.736;2022-09-16T05:42:23;9.30;;;6.90;;
70953;SDS011;58618;47.490;8.736;2022-09-16T05:45:10;10.70;;;8.17;;
70953;SDS011;58618;47.490;8.736;2022-09-16T05:47:59;10.68;;;8.23;;
70953;SDS011;58618;47.490;8.736;2022-09-16T05:50:50;15.23;;;11.23;;
70953;SDS011;58618;47.490;8.736;2022-09-16T05:53:37;11.07;;;8.38;;
70953;SDS011;58618;47.490;8.736;2022-09-16T05:56:25;10.13;;;8.02;;
70953;SDS011;58618;47.490;8.736;2022-09-16T05:59:15;12.40;;;7.93;;
70953;SDS011;58618;47.490;8.736;2022-09-16T06:02:03;9.73;;;7.40;;
70953;SDS011;58618;47.490;8.736;2022-09-16T06:04:51;7.78;;;6.05;;
70953;SDS011;58618;47.490;8.736;2022-09-16T06:07:39;7.25;;;5.82;;
70953;SDS011;58618;47.490;8.736;2022-09-16T06:10:26;8.32;;;5.82;;
70953;SDS011;58618;47.490;8.736;2022-09-16T06:13:13;8.33;;;6.37;;
70953;SDS011;58618;47.490;8.736;2022-09-16T06:16:01;7.53;;;5.80;;
70953;SDS011;58618;47.490;8.736;2022-09-16T06:18:50;7.60;;;5.80;;
70953;SDS011;58618;47.490;8.736;2022-09-16T06:21:38;7.18;;;5.38;;
70953;SDS011;58618;47.490;8.736;2022-09-16T06:24:29;4.97;;;4.30;;
70953;SDS011;58618;47.490;8.736;2022-09-16T06:27:16;7.70;;;4.23;;
70953;SDS011;58618;47.490;8.736;2022-09-16T06:30:04;5.53;;;4.20;;
70953;SDS011;58618;47.490;8.736;2022-09-16T06:32:52;6.30;;;4.50;;
70953;SDS011;58618;47.490;8.736;2022-09-16T06:35:39;7.05;;;5.40;;
70953;SDS011;58618;47.490;8.736;2022-09-16T06:38:28;6.30;;;4.82;;
70953;SDS011;58618;47.490;8.736;2022-09-16T06:41:15;7.97;;;5.20;;
70953;SDS011;58618;47.490;8.736;2022-09-16T06:44:04;8.52;;;5.88;;
70953;SDS011;58618;47.490;8.736;2022-09-16T06:46:52;8.18;;;5.85;;
70953;SDS011;58618;47.490;8.736;2022-09-16T06:49:39;8.15;;;5.72;;
70953;SDS011;58618;47.490;8.736;2022-09-16T06:52:26;7.00;;;5.47;;
70953;SDS011;58618;47.490;8.736;2022-09-16T06:55:15;7.17;;;5.10;;
70953;SDS011;58618;47.490;8.736;2022-09-16T06:58:02;7.63;;;5.95;;
70953;SDS011;58618;47.490;8.736;2022-09-16T07:00:50;9.00;;;6.30;;
70953;SDS011;58618;47.490;8.736;2022-09-16T07:03:37;9.23;;;6.30;;
70953;SDS011;58618;47.490;8.736;2022-09-16T07:06:27;8.50;;;6.78;;
70953;SDS011;58618;47.490;8.736;2022-09-16T07:09:15;7.90;;;6.43;;
70953;SDS011;58618;47.490;8.736;2022-09-16T07:12:04;9.65;;;6.13;;
70953;SDS011;58618;47.490;8.736;2022-09-16T07:14:51;8.57;;;6.65;;
70953;SDS011;58618;47.490;8.736;2022-09-16T07:17:39;11.48;;;6.28;;
70953;SDS011;58618;47.490;8.736;2022-09-16T07:20:26;10.35;;;5.90;;
70953;SDS011;58618;47.490;8.736;2022-09-16T07:23:14;10.13;;;6.20;;
70953;SDS011;58618;47.490;8.736;2022-09-16T07:26:02;8.63;;;5.93;;
70953;SDS011;58618;47.490;8.736;2022-09-16T07:28:52;8.95;;;6.55;;
70953;SDS011;58618;47.490;8.736;2022-09-16T07:31:40;7.53;;;5.85;;
70953;SDS011;58618;47.490;8.736;2022-09-16T07:34:28;9.85;;;5.57;;
70953;SDS011;58618;47.490;8.736;2022-09-16T07:37:15;9.57;;;6.27;;
70953;SDS011;58618;47.490;8.736;2022-09-16T07:40:05;7.45;;;5.78;;
70953;SDS011;58618;47.490;8.736;2022-09-16T07:42:53;8.88;;;5.70;;
70953;SDS011;58618;47.490;8.736;2022-09-16T07:45:42;8.13;;;5.47;;
70953;SDS011;58618;47.490;8.736;2022-09-16T07:48:29;13.40;;;6.07;;
70953;SDS011;58618;47.490;8.736;2022-09-16T07:51:18;7.23;;;5.10;;
70953;SDS011;58618;47.490;8.736;2022-09-16T07:54:08;8.82;;;5.57;;
70953;SDS011;58618;47.490;8.736;2022-09-16T07:56:57;9.02;;;5.40;;
70953;SDS011;58618;47.490;8.736;2022-09-16T07:59:44;6.28;;;4.85;;
70953;SDS011;58618;47.490;8.736;2022-09-16T08:02:34;7.63;;;5.55;;
70953;SDS011;58618;47.490;8.736;2022-09-16T08:05:21;6.40;;;4.97;;
70953;SDS011;58618;47.490;8.736;2022-09-16T08:08:08;7.40;;;4.88;;
70953;SDS011;58618;47.490;8.736;2022-09-16T08:10:56;7.03;;;5.30;;
70953;SDS011;58618;47.490;8.736;2022-09-16T08:13:44;7.13;;;5.20;;
70953;SDS011;58618;47.490;8.736;2022-09-16T08:16:32;10.57;;;5.00;;
70953;SDS011;58618;47.490;8.736;2022-09-16T08:19:20;7.33;;;5.00;;
70953;SDS011;58618;47.490;8.736;2022-09-16T08:22:08;8.13;;;4.38;;
70953;SDS011;58618;47.490;8.736;2022-09-16T08:24:55;8.30;;;4.60;;
70953;SDS011;58618;47.490;8.736;2022-09-16T08:27:42;7.28;;;3.90;;
70953;SDS011;58618;47.490;8.736;2022-09-16T08:30:32;4.80;;;3.65;;
70953;SDS011;58618;47.490;8.736;2022-09-16T08:33:20;5.03;;;3.50;;
70953;SDS011;58618;47.490;8.736;2022-09-16T08:36:12;6.00;;;3.42;;
70953;SDS011;58618;47.490;8.736;2022-09-16T08:39:02;6.38;;;3.90;;
70953;SDS011;58618;47.490;8.736;2022-09-16T08:41:54;6.90;;;3.80;;
70953;SDS011;58618;47.490;8.736;2022-09-16T08:45:01;6.07;;;3.55;;
70953;SDS011;58618;47.490;8.736;2022-09-16T08:48:00;7.53;;;3.37;;
70953;SDS011;58618;47.490;8.736;2022-09-16T08:50:57;4.50;;;3.28;;
70953;SDS011;58618;47.490;8.736;2022-09-16T08:53:50;5.20;;;3.50;;
70953;SDS011;58618;47.490;8.736;2022-09-16T08:56:43;7.05;;;3.50;;
70953;SDS011;58618;47.490;8.736;2022-09-16T08:59:34;6.65;;;3.53;;
70953;SDS011;58618;47.490;8.736;2022-09-16T09:02:27;4.97;;;3.47;;
70953;SDS011;58618;47.490;8.736;2022-09-16T09:05:25;7.93;;;3.83;;
70953;SDS011;58618;47.490;8.736;2022-09-16T09:08:22;6.05;;;3.58;;
70953;SDS011;58618;47.490;8.736;2022-09-16T09:11:20;5.38;;;3.45;;
70953;SDS011;58618;47.490;8.736;2022-09-16T09:14:19;5.03;;;3.70;;
70953;SDS011;58618;47.490;8.736;2022-09-16T09:17:21;7.10;;;3.73;;
70953;SDS011;58618;47.490;8.736;2022-09-16T09:20:21;5.35;;;3.47;;
70953;SDS011;58618;47.490;8.736;2022-09-16T09:23:22;6.80;;;3.45;;
70953;SDS011;58618;47.490;8.736;2022-09-16T09:26:24;5.00;;;3.70;;
70953;SDS011;58618;47.490;8.736;2022-09-16T09:29:28;5.10;;;3.47;;
70953;SDS011;58618;47.490;8.736;2022-09-16T09:32:33;5.50;;;3.47;;
70953;SDS011;58618;47.490;8.736;2022-09-16T09:35:35;7.63;;;3.67;;
70953;SDS011;58618;47.490;8.736;2022-09-16T09:38:58;6.85;;;3.78;;
70953;SDS011;58618;47.490;8.736;2022-09-16T09:41:56;5.50;;;3.40;;
70953;SDS011;58618;47.490;8.736;2022-09-16T09:44:53;4.80;;;3.60;;
70953;SDS011;58618;47.490;8.736;2022-09-16T09:47:46;5.07;;;3.60;;
70953;SDS011;58618;47.490;8.736;2022-09-16T09:50:39;5.25;;;3.67;;
70953;SDS011;58618;47.490;8.736;2022-09-16T09:53:30;6.70;;;3.90;;
70953;SDS011;58618;47.490;8.736;2022-09-16T09:59:32;5.70;;;4.18;;
70953;SDS011;58618;47.490;8.736;2022-09-16T10:02:29;7.10;;;3.93;;
70953;SDS011;58618;47.490;8.736;2022-09-16T10:05:20;9.13;;;4.30;;
70953;SDS011;58618;47.490;8.736;2022-09-16T10:08:12;5.57;;;3.72;;
70953;SDS011;58618;47.490;8.736;2022-09-16T10:11:13;6.75;;;4.50;;
70953;SDS011;58618;47.490;8.736;2022-09-16T10:14:02;7.70;;;4.22;;
70953;SDS011;58618;47.490;8.736;2022-09-16T10:16:52;8.50;;;4.10;;
70953;SDS011;58618;47.490;8.736;2022-09-16T10:19:49;7.20;;;4.68;;
70953;SDS011;58618;47.490;8.736;2022-09-16T10:22:40;6.38;;;4.30;;
70953;SDS011;58618;47.490;8.736;2022-09-16T10:25:28;9.55;;;4.28;;
70953;SDS011;58618;47.490;8.736;2022-09-16T10:28:27;6.70;;;4.82;;
70953;SDS011;58618;47.490;8.736;2022-09-16T10:31:15;6.50;;;4.23;;
70953;SDS011;58618;47.490;8.736;2022-09-16T10:34:11;5.57;;;4.18;;
70953;SDS011;58618;47.490;8.736;2022-09-16T10:37:13;6.28;;;4.45;;
70953;SDS011;58618;47.490;8.736;2022-09-16T10:40:14;7.80;;;4.50;;
70953;SDS011;58618;47.490;8.736;2022-09-16T10:43:05;5.22;;;4.00;;
70953;SDS011;58618;47.490;8.736;2022-09-16T10:46:00;8.47;;;4.50;;
70953;SDS011;58618;47.490;8.736;2022-09-16T10:48:48;7.93;;;5.05;;
70953;SDS011;58618;47.490;8.736;2022-09-16T10:51:51;7.03;;;4.32;;
70953;SDS011;58618;47.490;8.736;2022-09-16T10:54:41;7.38;;;4.60;;
70953;SDS011;58618;47.490;8.736;2022-09-16T10:57:29;6.72;;;4.50;;
70953;SDS011;58618;47.490;8.736;2022-09-16T11:00:24;7.80;;;4.73;;
70953;SDS011;58618;47.490;8.736;2022-09-16T11:06:42;8.93;;;5.38;;
70953;SDS011;58618;47.490;8.736;2022-09-16T11:09:46;11.38;;;5.30;;
70953;SDS011;58618;47.490;8.736;2022-09-16T11:12:44;8.88;;;5.15;;
70953;SDS011;58618;47.490;8.736;2022-09-16T11:15:48;7.10;;;4.83;;
70953;SDS011;58618;47.490;8.736;2022-09-16T11:18:52;6.60;;;4.45;;
70953;SDS011;58618;47.490;8.736;2022-09-16T11:22:03;5.95;;;4.60;;
70953;SDS011;58618;47.490;8.736;2022-09-16T11:25:25;6.57;;;4.53;;
70953;SDS011;58618;47.490;8.736;2022-09-16T11:31:48;8.00;;;5.13;;
70953;SDS011;58618;47.490;8.736;2022-09-16T11:34:47;8.07;;;4.60;;
70953;SDS011;58618;47.490;8.736;2022-09-16T11:37:47;7.00;;;4.45;;
70953;SDS011;58618;47.490;8.736;2022-09-16T11:40:44;8.50;;;4.50;;
70953;SDS011;58618;47.490;8.736;2022-09-16T11:43:42;8.10;;;4.40;;
70953;SDS011;58618;47.490;8.736;2022-09-16T11:46:41;7.20;;;5.10;;
70953;SDS011;58618;47.490;8.736;2022-09-16T11:49:40;6.63;;;4.53;;
70953;SDS011;58618;47.490;8.736;2022-09-16T11:52:41;7.18;;;4.70;;
70953;SDS011;58618;47.490;8.736;2022-09-16T11:55:43;5.93;;;4.78;;
70953;SDS011;58618;47.490;8.736;2022-09-16T11:58:38;8.95;;;5.05;;
70953;SDS011;58618;47.490;8.736;2022-09-16T12:01:31;7.87;;;4.43;;
70953;SDS011;58618;47.490;8.736;2022-09-16T12:04:24;6.47;;;4.78;;
70953;SDS011;58618;47.490;8.736;2022-09-16T12:07:16;7.93;;;4.90;;
70953;SDS011;58618;47.490;8.736;2022-09-16T12:10:10;7.93;;;4.43;;
70953;SDS011;58618;47.490;8.736;2022-09-16T12:13:06;6.28;;;4.57;;
70953;SDS011;58618;47.490;8.736;2022-09-16T12:15:58;5.50;;;4.23;;
70953;SDS011;58618;47.490;8.736;2022-09-16T12:18:50;8.30;;;5.18;;
70953;SDS011;58618;47.490;8.736;2022-09-16T12:21:42;8.43;;;4.60;;
70953;SDS011;58618;47.490;8.736;2022-09-16T12:24:35;7.57;;;4.47;;
70953;SDS011;58618;47.490;8.736;2022-09-16T12:27:32;6.28;;;4.03;;
70953;SDS011;58618;47.490;8.736;2022-09-16T12:30:29;5.93;;;3.77;;
70953;SDS011;58618;47.490;8.736;2022-09-16T12:33:21;4.88;;;3.85;;
70953;SDS011;58618;47.490;8.736;2022-09-16T12:36:14;6.70;;;4.05;;
70953;SDS011;58618;47.490;8.736;2022-09-16T12:39:04;5.47;;;3.90;;
70953;SDS011;58618;47.490;8.736;2022-09-16T12:49:06;4.97;;;3.60;;
70953;SDS011;58618;47.490;8.736;2022-09-16T12:52:17;5.25;;;3.60;;
70953;SDS011;58618;47.490;8.736;2022-09-16T12:58:39;3.13;;;2.50;;
70953;SDS011;58618;47.490;8.736;2022-09-16T13:01:37;3.83;;;2.37;;
70953;SDS011;58618;47.490;8.736;2022-09-16T13:04:31;3.13;;;2.30;;
70953;SDS011;58618;47.490;8.736;2022-09-16T13:07:24;2.72;;;2.25;;
70953;SDS011;58618;47.490;8.736;2022-09-16T13:10:15;4.40;;;2.40;;
70953;SDS011;58618;47.490;8.736;2022-09-16T13:13:05;3.88;;;2.55;;
70953;SDS011;58618;47.490;8.736;2022-09-16T13:15:54;3.70;;;2.20;;
70953;SDS011;58618;47.490;8.736;2022-09-16T13:18:43;5.22;;;2.42;;
70953;SDS011;58618;47.490;8.736;2022-09-16T13:21:37;3.10;;;2.55;;
70953;SDS011;58618;47.490;8.736;2022-09-16T13:24:30;4.53;;;2.80;;
70953;SDS011;58618;47.490;8.736;2022-09-16T13:27:24;5.95;;;2.55;;
70953;SDS011;58618;47.490;8.736;2022-09-16T13:30:27;3.57;;;2.40;;
70953;SDS011;58618;47.490;8.736;2022-09-16T13:33:21;4.20;;;2.70;;
70953;SDS011;58618;47.490;8.736;2022-09-16T13:36:28;5.85;;;2.30;;
70953;SDS011;58618;47.490;8.736;2022-09-16T13:39:30;3.55;;;2.50;;
70953;SDS011;58618;47.490;8.736;2022-09-16T13:42:20;3.13;;;2.50;;
70953;SDS011;58618;47.490;8.736;2022-09-16T13:48:23;4.47;;;2.70;;
70953;SDS011;58618;47.490;8.736;2022-09-16T13:51:13;3.63;;;2.47;;
70953;SDS011;58618;47.490;8.736;2022-09-16T13:54:13;4.95;;;2.70;;
70953;SDS011;58618;47.490;8.736;2022-09-16T13:57:14;4.25;;;2.50;;
70953;SDS011;58618;47.490;8.736;2022-09-16T14:00:12;3.17;;;2.43;;
70953;SDS011;58618;47.490;8.736;2022-09-16T14:06:39;3.25;;;2.45;;
70953;SDS011;58618;47.490;8.736;2022-09-16T14:09:37;3.60;;;2.45;;
70953;SDS011;58618;47.490;8.736;2022-09-16T14:12:35;2.50;;;2.30;;
70953;SDS011;58618;47.490;8.736;2022-09-16T14:15:33;4.10;;;2.70;;
70953;SDS011;58618;47.490;8.736;2022-09-16T14:18:23;3.13;;;2.65;;
70953;SDS011;58618;47.490;8.736;2022-09-16T14:21:17;3.63;;;2.58;;
70953;SDS011;58618;47.490;8.736;2022-09-16T14:24:06;5.13;;;2.63;;
70953;SDS011;58618;47.490;8.736;2022-09-16T14:27:01;5.30;;;2.75;;
70953;SDS011;58618;47.490;8.736;2022-09-16T14:29:55;4.43;;;2.37;;
70953;SDS011;58618;47.490;8.736;2022-09-16T14:32:43;5.75;;;2.50;;
70953;SDS011;58618;47.490;8.736;2022-09-16T14:35:31;4.55;;;2.35;;
70953;SDS011;58618;47.490;8.736;2022-09-16T14:38:20;5.15;;;2.40;;
70953;SDS011;58618;47.490;8.736;2022-09-16T14:41:15;4.40;;;2.70;;
70953;SDS011;58618;47.490;8.736;2022-09-16T14:44:08;3.40;;;2.40;;
70953;SDS011;58618;47.490;8.736;2022-09-16T14:47:05;3.83;;;2.35;;
70953;SDS011;58618;47.490;8.736;2022-09-16T14:50:03;4.07;;;2.20;;
70953;SDS011;58618;47.490;8.736;2022-09-16T14:52:54;4.18;;;2.33;;
70953;SDS011;58618;47.490;8.736;2022-09-16T14:55:46;2.45;;;2.08;;
70953;SDS011;58618;47.490;8.736;2022-09-16T14:58:35;2.70;;;2.20;;
70953;SDS011;58618;47.490;8.736;2022-09-16T15:01:23;3.08;;;2.30;;
70953;SDS011;58618;47.490;8.736;2022-09-16T15:04:15;3.08;;;2.20;;
70953;SDS011;58618;47.490;8.736;2022-09-16T15:07:07;2.80;;;2.15;;
70953;SDS011;58618;47.490;8.736;2022-09-16T15:09:59;3.97;;;2.20;;
70953;SDS011;58618;47.490;8.736;2022-09-16T15:12:48;2.67;;;2.10;;
70953;SDS011;58618;47.490;8.736;2022-09-16T15:15:44;5.22;;;2.28;;
70953;SDS011;58618;47.490;8.736;2022-09-16T15:18:36;3.22;;;2.22;;
70953;SDS011;58618;47.490;8.736;2022-09-16T15:21:26;2.70;;;1.95;;
70953;SDS011;58618;47.490;8.736;2022-09-16T15:24:18;3.10;;;2.20;;
70953;SDS011;58618;47.490;8.736;2022-09-16T15:27:07;4.63;;;2.13;;
70953;SDS011;58618;47.490;8.736;2022-09-16T15:29:57;2.60;;;2.10;;
70953;SDS011;58618;47.490;8.736;2022-09-16T15:32:45;3.05;;;2.10;;
70953;SDS011;58618;47.490;8.736;2022-09-16T15:35:33;4.82;;;2.30;;
70953;SDS011;58618;47.490;8.736;2022-09-16T15:38:22;2.92;;;2.25;;
70953;SDS011;58618;47.490;8.736;2022-09-16T15:41:10;3.00;;;2.10;;
70953;SDS011;58618;47.490;8.736;2022-09-16T15:43:59;4.57;;;2.40;;
70953;SDS011;58618;47.490;8.736;2022-09-16T15:46:46;7.30;;;2.42;;
70953;SDS011;58618;47.490;8.736;2022-09-16T15:49:36;3.30;;;2.47;;
70953;SDS011;58618;47.490;8.736;2022-09-16T15:52:25;3.13;;;2.40;;
70953;SDS011;58618;47.490;8.736;2022-09-16T15:55:14;3.37;;;2.37;;
70953;SDS011;58618;47.490;8.736;2022-09-16T15:58:14;6.43;;;3.10;;
70953;SDS011;58618;47.490;8.736;2022-09-16T16:01:09;4.38;;;2.65;;
70953;SDS011;58618;47.490;8.736;2022-09-16T16:03:59;3.88;;;2.47;;
70953;SDS011;58618;47.490;8.736;2022-09-16T16:06:50;4.05;;;2.45;;
70953;SDS011;58618;47.490;8.736;2022-09-16T16:09:40;3.30;;;2.63;;
70953;SDS011;58618;47.490;8.736;2022-09-16T16:12:29;4.65;;;2.75;;
70953;SDS011;58618;47.490;8.736;2022-09-16T16:15:17;4.45;;;2.67;;
70953;SDS011;58618;47.490;8.736;2022-09-16T16:18:07;4.88;;;2.70;;
70953;SDS011;58618;47.490;8.736;2022-09-16T16:20:55;3.88;;;2.88;;
70953;SDS011;58618;47.490;8.736;2022-09-16T16:23:42;3.70;;;2.80;;
70953;SDS011;58618;47.490;8.736;2022-09-16T16:26:30;3.78;;;2.65;;
70953;SDS011;58618;47.490;8.736;2022-09-16T16:29:18;4.43;;;2.97;;
70953;SDS011;58618;47.490;8.736;2022-09-16T16:32:06;3.05;;;2.65;;
70953;SDS011;58618;47.490;8.736;2022-09-16T16:34:55;2.88;;;2.30;;
70953;SDS011;58618;47.490;8.736;2022-09-16T16:37:44;4.87;;;2.50;;
70953;SDS011;58618;47.490;8.736;2022-09-16T16:40:31;5.65;;;2.83;;
70953;SDS011;58618;47.490;8.736;2022-09-16T16:43:18;3.63;;;2.45;;
70953;SDS011;58618;47.490;8.736;2022-09-16T16:46:08;3.85;;;2.65;;
70953;SDS011;58618;47.490;8.736;2022-09-16T16:48:55;4.78;;;2.47;;
70953;SDS011;58618;47.490;8.736;2022-09-16T16:51:42;5.47;;;2.50;;
70953;SDS011;58618;47.490;8.736;2022-09-16T16:54:30;3.53;;;2.58;;
70953;SDS011;58618;47.490;8.736;2022-09-16T16:57:18;6.78;;;2.53;;
70953;SDS011;58618;47.490;8.736;2022-09-16T17:00:06;3.47;;;2.20;;
70953;SDS011;58618;47.490;8.736;2022-09-16T17:02:55;4.93;;;2.70;;
70953;SDS011;58618;47.490;8.736;2022-09-16T17:05:42;3.87;;;2.30;;
70953;SDS011;58618;47.490;8.736;2022-09-16T17:08:30;3.22;;;1.90;;
70953;SDS011;58618;47.490;8.736;2022-09-16T17:11:18;4.72;;;2.35;;
70953;SDS011;58618;47.490;8.736;2022-09-16T17:14:07;3.88;;;2.22;;
70953;SDS011;58618;47.490;8.736;2022-09-16T17:16:55;4.50;;;2.50;;
70953;SDS011;58618;47.490;8.736;2022-09-16T17:19:44;3.77;;;2.23;;
70953;SDS011;58618;47.490;8.736;2022-09-16T17:22:32;3.80;;;2.40;;
70953;SDS011;58618;47.490;8.736;2022-09-16T17:25:19;3.47;;;2.10;;
70953;SDS011;58618;47.490;8.736;2022-09-16T17:28:06;3.42;;;2.50;;
70953;SDS011;58618;47.490;8.736;2022-09-16T17:30:54;2.83;;;2.50;;
70953;SDS011;58618;47.490;8.736;2022-09-16T17:33:42;4.33;;;2.33;;
70953;SDS011;58618;47.490;8.736;2022-09-16T17:36:32;2.92;;;2.20;;
70953;SDS011;58618;47.490;8.736;2022-09-16T17:39:21;3.03;;;2.30;;
70953;SDS011;58618;47.490;8.736;2022-09-16T17:42:09;2.90;;;2.42;;
70953;SDS011;58618;47.490;8.736;2022-09-16T17:44:56;3.00;;;2.40;;
70953;SDS011;58618;47.490;8.736;2022-09-16T17:47:45;5.10;;;2.40;;
70953;SDS011;58618;47.490;8.736;2022-09-16T17:50:36;5.00;;;2.22;;
70953;SDS011;58618;47.490;8.736;2022-09-16T17:53:25;3.55;;;2.13;;